Time;durP1;ratioP1;P1;durP2;ratioP2;P2;SDS_P1;SDS_P2;PMS_P1;PMS_P2;Temp;Humidity;BMP_temperature;BMP_pressure;BME280_temperature;BME280_humidity;BME280_pressure;Samples;Min_cycle;Max_cycle;Signal;HPM_P1;HPM_P2
2023/12/23 00:02:24;;;;;;;4.33;1.87;;;10.30;99.90;;;;;;5021987;28;20246;-68
2023/12/23 00:04:49;;;;;;;5.40;2.43;;;10.30;99.90;;;;;;5021544;28;20215;-69
2023/12/23 00:07:15;;;;;;;5.33;2.20;;;10.30;99.90;;;;;;5023867;28;20192;-69
2023/12/23 00:09:41;;;;;;;10.33;3.43;;;10.20;99.90;;;;;;5025198;28;20287;-68
2023/12/23 00:12:08;;;;;;;7.70;2.00;;;10.20;99.90;;;;;;5024394;28;20192;-69
2023/12/23 00:14:34;;;;;;;5.07;1.90;;;10.10;99.90;;;;;;5023667;28;20439;-69
2023/12/23 00:17:00;;;;;;;4.17;1.60;;;10.10;99.90;;;;;;5024282;28;20435;-68
2023/12/23 00:19:26;;;;;;;7.43;2.27;;;10.10;99.90;;;;;;5024856;28;20447;-70
2023/12/23 00:21:51;;;;;;;4.10;1.83;;;10.10;99.90;;;;;;5024032;28;20185;-69
2023/12/23 00:24:17;;;;;;;11.83;2.27;;;10.20;99.90;;;;;;5025388;28;20219;-68
2023/12/23 00:26:42;;;;;;;11.03;2.23;;;10.10;99.90;;;;;;5016514;28;20185;-68
2023/12/23 00:29:08;;;;;;;4.77;2.10;;;10.00;99.90;;;;;;5019148;28;20261;-68
2023/12/23 00:31:33;;;;;;;8.37;2.30;;;10.00;99.90;;;;;;5023050;28;20195;-68
2023/12/23 00:33:59;;;;;;;10.03;2.60;;;10.00;99.90;;;;;;5015629;28;20558;-69
2023/12/23 00:36:25;;;;;;;11.03;2.80;;;10.10;99.90;;;;;;5020810;28;20173;-68
2023/12/23 00:38:50;;;;;;;5.20;2.13;;;10.10;99.90;;;;;;5026593;28;20188;-70
2023/12/23 00:41:16;;;;;;;5.87;2.13;;;10.10;99.90;;;;;;5025151;28;20579;-69
2023/12/23 00:43:41;;;;;;;11.30;2.30;;;10.10;99.90;;;;;;5024563;28;20283;-70
2023/12/23 00:46:10;;;;;;;5.53;1.90;;;10.10;99.90;;;;;;5023616;28;20682;-70
2023/12/23 00:48:35;;;;;;;2.53;1.80;;;10.00;99.90;;;;;;5021041;28;20690;-69
2023/12/23 00:51:01;;;;;;;7.60;2.17;;;10.00;99.90;;;;;;5021489;28;20489;-69
2023/12/23 00:53:27;;;;;;;6.17;2.50;;;10.00;99.90;;;;;;5023220;28;20294;-69
2023/12/23 00:55:53;;;;;;;11.40;2.87;;;10.00;99.90;;;;;;5025626;28;20254;-69
2023/12/23 00:58:18;;;;;;;7.83;2.40;;;9.90;99.90;;;;;;5024313;28;20699;-70
2023/12/23 01:00:44;;;;;;;12.53;2.60;;;9.70;99.90;;;;;;5029844;28;20642;-70
2023/12/23 01:03:09;;;;;;;10.00;2.60;;;9.70;99.90;;;;;;5025051;28;20842;-69
2023/12/23 01:05:35;;;;;;;11.40;4.13;;;9.70;99.90;;;;;;5022080;28;20638;-69
2023/12/23 01:08:00;;;;;;;5.10;2.40;;;9.80;99.90;;;;;;5020817;28;20558;-69
2023/12/23 01:10:26;;;;;;;14.30;2.70;;;9.80;99.90;;;;;;5019766;28;20216;-69
2023/12/23 01:12:53;;;;;;;12.70;3.10;;;9.80;99.90;;;;;;5017775;28;20211;-69
2023/12/23 01:15:18;;;;;;;7.40;3.20;;;9.80;99.90;;;;;;5050555;28;20803;-67
2023/12/23 01:17:44;;;;;;;5.07;2.03;;;9.90;99.90;;;;;;5018378;28;20415;-67
2023/12/23 01:20:11;;;;;;;8.80;2.30;;;9.80;99.90;;;;;;5023418;28;20177;-68
2023/12/23 01:22:37;;;;;;;7.73;2.30;;;9.80;99.90;;;;;;5020863;28;20446;-68
2023/12/23 01:25:02;;;;;;;11.07;3.17;;;9.90;99.90;;;;;;5020616;28;20436;-68
2023/12/23 01:27:28;;;;;;;8.70;3.07;;;9.90;99.90;;;;;;5016798;28;20190;-68
2023/12/23 01:29:54;;;;;;;11.03;4.37;;;9.90;99.90;;;;;;5022898;28;20307;-68
2023/12/23 01:32:20;;;;;;;13.73;2.37;;;9.90;99.90;;;;;;5021180;28;20490;-68
2023/12/23 01:34:47;;;;;;;5.97;2.30;;;9.90;99.90;;;;;;5024210;28;20428;-68
2023/12/23 01:37:13;;;;;;;6.93;2.30;;;9.90;99.90;;;;;;5017129;28;20431;-68
2023/12/23 01:39:38;;;;;;;5.77;1.87;;;10.00;99.90;;;;;;5026532;28;20806;-67
2023/12/23 01:42:04;;;;;;;11.03;2.70;;;10.00;99.90;;;;;;5019749;28;20436;-68
2023/12/23 01:44:30;;;;;;;4.73;2.40;;;10.00;99.90;;;;;;5021192;28;20196;-68
2023/12/23 01:46:56;;;;;;;11.30;2.60;;;10.00;99.90;;;;;;5029615;28;20543;-69
2023/12/23 01:49:23;;;;;;;6.80;2.30;;;10.10;99.90;;;;;;5021149;28;20188;-68
2023/12/23 01:51:50;;;;;;;7.73;1.93;;;10.00;99.90;;;;;;5020228;28;20427;-67
2023/12/23 01:54:15;;;;;;;7.90;2.20;;;10.00;99.90;;;;;;5022324;28;20960;-68
2023/12/23 01:56:42;;;;;;;14.20;2.93;;;9.90;99.90;;;;;;5021357;28;20417;-68
2023/12/23 01:59:07;;;;;;;3.83;1.70;;;9.90;99.90;;;;;;5016487;28;20207;-68
2023/12/23 02:01:34;;;;;;;8.40;2.60;;;10.00;99.90;;;;;;5016993;28;20443;-67
2023/12/23 02:04:00;;;;;;;6.70;2.13;;;9.90;99.90;;;;;;5018864;28;20212;-67
2023/12/23 02:06:26;;;;;;;6.33;2.20;;;10.00;99.90;;;;;;5022084;28;20430;-68
2023/12/23 02:08:52;;;;;;;8.80;2.37;;;10.00;99.90;;;;;;5020806;28;20702;-69
2023/12/23 02:11:28;;;;;;;5.80;2.23;;;10.10;99.90;;;;;;5018091;28;22750;-68
2023/12/23 02:14:26;;;;;;;8.80;3.67;;;10.10;99.90;;;;;;5022327;28;20441;-68
2023/12/23 02:16:52;;;;;;;11.50;2.47;;;10.20;99.90;;;;;;5018738;28;20407;-68
2023/12/23 02:19:18;;;;;;;6.53;2.10;;;10.20;99.90;;;;;;5024199;28;20871;-68
2023/12/23 02:21:44;;;;;;;7.20;2.47;;;10.20;99.90;;;;;;5020480;28;20561;-68
2023/12/23 02:24:09;;;;;;;7.33;1.97;;;10.20;99.90;;;;;;5021717;28;20278;-68
2023/12/23 02:26:37;;;;;;;8.30;2.63;;;10.20;99.90;;;;;;5019525;28;20686;-67
2023/12/23 02:29:03;;;;;;;6.33;2.20;;;10.20;99.90;;;;;;5014803;28;20204;-69
2023/12/23 02:31:31;;;;;;;4.80;2.60;;;10.20;99.90;;;;;;5017426;28;20503;-68
2023/12/23 02:33:59;;;;;;;4.83;2.57;;;10.20;99.90;;;;;;5018819;28;20992;-69
2023/12/23 02:36:24;;;;;;;6.20;2.27;;;10.20;99.90;;;;;;5021076;28;20423;-68
2023/12/23 02:38:50;;;;;;;12.77;3.83;;;10.30;99.90;;;;;;5023783;28;20425;-68
2023/12/23 02:41:16;;;;;;;4.63;2.30;;;10.20;99.90;;;;;;5022660;28;20310;-69
2023/12/23 02:43:41;;;;;;;7.43;2.37;;;10.20;99.90;;;;;;5020423;28;20226;-69
2023/12/23 02:46:07;;;;;;;7.20;2.37;;;10.30;99.90;;;;;;5022676;28;20177;-68
2023/12/23 02:48:32;;;;;;;5.47;1.97;;;10.30;99.90;;;;;;5018089;28;20192;-69
2023/12/23 02:50:58;;;;;;;7.63;2.17;;;10.30;99.90;;;;;;5021671;28;20220;-68
2023/12/23 02:53:23;;;;;;;13.30;2.80;;;10.30;99.90;;;;;;5022455;28;20197;-68
2023/12/23 02:55:49;;;;;;;4.60;2.30;;;10.40;99.90;;;;;;5021039;28;20176;-68
2023/12/23 02:58:14;;;;;;;5.03;2.30;;;10.40;99.90;;;;;;5020367;28;20192;-68
2023/12/23 03:00:40;;;;;;;5.53;1.90;;;10.50;99.90;;;;;;5021656;28;20235;-68
2023/12/23 03:03:05;;;;;;;7.07;2.47;;;10.40;99.90;;;;;;5019758;28;20211;-68
2023/12/23 03:05:31;;;;;;;9.47;2.10;;;10.40;99.90;;;;;;5016052;28;20197;-68
2023/12/23 03:07:57;;;;;;;14.17;2.70;;;10.50;99.90;;;;;;5019534;28;20193;-68
2023/12/23 03:10:22;;;;;;;6.17;3.53;;;10.50;99.90;;;;;;5021820;28;20215;-68
2023/12/23 03:12:48;;;;;;;5.57;2.00;;;10.60;99.90;;;;;;5021389;28;20354;-68
2023/12/23 03:15:13;;;;;;;6.47;2.27;;;10.50;99.90;;;;;;5015750;28;20228;-68
2023/12/23 03:17:39;;;;;;;10.23;2.77;;;10.40;99.90;;;;;;5019142;28;20712;-68
2023/12/23 03:20:05;;;;;;;5.50;2.40;;;10.40;99.90;;;;;;5021190;28;20188;-68
2023/12/23 03:22:31;;;;;;;6.20;2.50;;;10.40;99.90;;;;;;5020802;28;20223;-68
2023/12/23 03:24:56;;;;;;;6.20;2.67;;;10.40;99.90;;;;;;5021557;28;20487;-68
2023/12/23 03:27:22;;;;;;;5.10;2.10;;;10.40;99.90;;;;;;5017597;28;20216;-68
2023/12/23 03:29:48;;;;;;;7.03;2.50;;;10.50;99.90;;;;;;5019177;28;20208;-69
2023/12/23 03:32:13;;;;;;;9.80;2.30;;;10.50;99.90;;;;;;5016812;28;20210;-69
2023/12/23 03:34:41;;;;;;;11.77;3.00;;;10.50;99.90;;;;;;5019198;28;20295;-69
2023/12/23 03:37:06;;;;;;;4.00;2.20;;;10.50;99.90;;;;;;5018119;28;20184;-68
2023/12/23 03:39:32;;;;;;;9.37;2.63;;;10.50;99.90;;;;;;5019771;28;20427;-69
2023/12/23 03:41:57;;;;;;;5.10;2.23;;;10.50;99.90;;;;;;5018574;28;20595;-68
2023/12/23 03:44:23;;;;;;;6.33;2.33;;;10.40;99.90;;;;;;5019382;28;20220;-68
2023/12/23 03:46:48;;;;;;;5.97;2.50;;;10.40;99.90;;;;;;5015399;28;20197;-68
2023/12/23 03:49:14;;;;;;;4.57;2.23;;;10.40;99.90;;;;;;5019298;28;20204;-68
2023/12/23 03:51:39;;;;;;;6.40;2.40;;;10.30;99.90;;;;;;5020288;28;20200;-68
2023/12/23 03:54:05;;;;;;;6.77;2.30;;;10.30;99.90;;;;;;5019018;28;20219;-68
2023/12/23 03:56:31;;;;;;;6.93;2.20;;;10.30;99.90;;;;;;5020951;28;20193;-68
2023/12/23 03:58:58;;;;;;;6.47;2.87;;;10.30;99.90;;;;;;5016343;28;20192;-68
2023/12/23 04:01:24;;;;;;;5.97;2.47;;;10.30;99.90;;;;;;5017557;28;20184;-69
2023/12/23 04:03:50;;;;;;;14.20;2.60;;;10.20;99.90;;;;;;5015939;28;20966;-69
2023/12/23 04:06:16;;;;;;;8.80;3.90;;;10.30;99.90;;;;;;5021263;28;20899;-69
2023/12/23 04:08:42;;;;;;;8.27;2.70;;;10.40;99.90;;;;;;5017313;28;20497;-68
2023/12/23 04:11:08;;;;;;;8.10;3.50;;;10.40;99.90;;;;;;5021495;28;20442;-68
2023/12/23 04:13:34;;;;;;;4.40;2.53;;;10.40;99.90;;;;;;5020761;28;20442;-69
2023/12/23 04:16:04;;;;;;;7.33;3.43;;;10.40;99.90;;;;;;5020828;28;20192;-69
2023/12/23 04:18:29;;;;;;;6.93;2.77;;;10.40;99.90;;;;;;5016494;28;20826;-68
2023/12/23 04:20:55;;;;;;;6.43;2.90;;;10.40;99.90;;;;;;5018479;28;20445;-69
2023/12/23 04:23:20;;;;;;;7.60;3.40;;;10.40;99.90;;;;;;5022812;28;20216;-68
2023/12/23 04:25:46;;;;;;;5.10;3.10;;;10.40;99.90;;;;;;5025185;28;20873;-68
2023/12/23 04:28:12;;;;;;;6.90;2.37;;;10.30;99.90;;;;;;5025005;28;20214;-68
2023/12/23 04:30:38;;;;;;;5.87;2.70;;;10.30;99.90;;;;;;5022504;28;20652;-68
2023/12/23 04:33:04;;;;;;;4.77;2.47;;;10.30;99.90;;;;;;5025921;28;20527;-68
2023/12/23 04:35:29;;;;;;;5.60;2.40;;;10.30;99.90;;;;;;5020151;28;21403;-68
2023/12/23 04:37:55;;;;;;;5.97;2.40;;;10.30;99.90;;;;;;5020574;28;20800;-68
2023/12/23 04:40:20;;;;;;;5.50;2.00;;;10.30;99.90;;;;;;5023043;28;20242;-68
2023/12/23 04:42:46;;;;;;;3.77;2.00;;;10.30;99.90;;;;;;5022011;28;20208;-68
2023/12/23 04:45:12;;;;;;;5.80;2.20;;;10.30;99.90;;;;;;5025786;28;20188;-69
2023/12/23 04:47:38;;;;;;;3.30;1.80;;;10.20;99.90;;;;;;5021132;28;20244;-69
2023/12/23 04:50:04;;;;;;;9.33;2.40;;;10.20;99.90;;;;;;5020975;28;20769;-69
2023/12/23 04:52:29;;;;;;;5.77;2.40;;;10.20;99.90;;;;;;5019049;28;20936;-69
2023/12/23 04:54:55;;;;;;;4.67;2.40;;;10.20;99.90;;;;;;5019490;28;20518;-68
2023/12/23 04:57:21;;;;;;;4.73;2.57;;;10.20;99.90;;;;;;5019947;28;20183;-68
2023/12/23 04:59:46;;;;;;;3.83;1.83;;;10.20;99.90;;;;;;5019793;28;20230;-68
2023/12/23 05:02:12;;;;;;;4.33;2.10;;;10.20;99.90;;;;;;5023960;28;20238;-69
2023/12/23 05:04:37;;;;;;;6.80;3.07;;;10.20;99.90;;;;;;5023293;28;20284;-68
2023/12/23 05:07:03;;;;;;;6.20;2.47;;;10.20;99.90;;;;;;5019498;28;20226;-67
2023/12/23 05:09:29;;;;;;;5.87;2.07;;;10.20;99.90;;;;;;5021491;28;20248;-68
2023/12/23 05:11:54;;;;;;;4.00;2.43;;;10.10;99.90;;;;;;5021843;28;20181;-68
2023/12/23 05:14:20;;;;;;;3.50;2.10;;;10.10;99.90;;;;;;5023436;28;20254;-68
2023/12/23 05:16:45;;;;;;;4.37;1.87;;;10.00;99.90;;;;;;5024548;28;20177;-68
2023/12/23 05:19:11;;;;;;;4.60;2.37;;;9.80;99.90;;;;;;5020955;28;20188;-68
2023/12/23 05:21:36;;;;;;;4.90;2.33;;;9.60;99.90;;;;;;5021708;28;20195;-68
2023/12/23 05:24:02;;;;;;;10.30;2.30;;;9.60;99.90;;;;;;5021827;28;20274;-68
2023/12/23 05:26:28;;;;;;;3.53;2.10;;;9.50;99.90;;;;;;5020506;28;20254;-68
2023/12/23 05:28:53;;;;;;;5.13;2.10;;;9.50;99.90;;;;;;5022347;28;20215;-68
2023/12/23 05:31:19;;;;;;;5.20;2.23;;;9.50;99.90;;;;;;5024636;28;20223;-68
2023/12/23 05:33:45;;;;;;;6.00;2.23;;;9.40;99.90;;;;;;5020404;28;20204;-68
2023/12/23 05:36:11;;;;;;;5.07;1.90;;;9.50;99.90;;;;;;5022760;28;20226;-68
2023/12/23 05:38:36;;;;;;;6.57;2.33;;;9.60;99.90;;;;;;5023001;28;20452;-68
2023/12/23 05:41:02;;;;;;;3.90;2.20;;;9.60;99.90;;;;;;5023158;28;20185;-68
2023/12/23 05:43:27;;;;;;;3.73;1.87;;;9.60;99.90;;;;;;5022931;28;20205;-69
2023/12/23 05:45:53;;;;;;;3.10;1.80;;;9.60;99.90;;;;;;5023520;28;20181;-69
2023/12/23 05:48:18;;;;;;;3.20;1.70;;;9.60;99.90;;;;;;5023057;28;20275;-69
2023/12/23 05:50:44;;;;;;;3.73;1.67;;;9.60;99.90;;;;;;5022572;28;20203;-69
2023/12/23 05:53:09;;;;;;;7.67;2.93;;;9.60;99.90;;;;;;5024923;28;20231;-69
2023/12/23 05:55:35;;;;;;;3.60;2.07;;;9.60;99.90;;;;;;5022064;28;20673;-68
2023/12/23 05:58:01;;;;;;;4.03;2.00;;;9.60;99.90;;;;;;5021145;28;20273;-68
2023/12/23 06:00:27;;;;;;;5.60;1.77;;;9.60;99.90;;;;;;5020393;28;20247;-68
2023/12/23 06:02:52;;;;;;;4.97;2.00;;;9.60;99.90;;;;;;5018413;28;21094;-68
2023/12/23 06:05:18;;;;;;;6.20;1.90;;;9.60;99.90;;;;;;5022617;28;20180;-69
2023/12/23 06:07:44;;;;;;;3.43;1.83;;;9.60;99.90;;;;;;5022944;28;20360;-69
2023/12/23 06:10:10;;;;;;;4.10;2.37;;;9.60;99.90;;;;;;5022685;28;20240;-69
2023/12/23 06:12:35;;;;;;;3.60;1.77;;;9.60;99.90;;;;;;5018247;28;20556;-69
2023/12/23 06:15:01;;;;;;;4.43;1.83;;;9.60;99.90;;;;;;5022120;28;20189;-69
2023/12/23 06:17:27;;;;;;;5.27;2.37;;;9.60;99.90;;;;;;5022516;28;20174;-68
2023/12/23 06:19:52;;;;;;;6.60;2.60;;;9.60;99.90;;;;;;5020016;28;20243;-69
2023/12/23 06:22:18;;;;;;;5.70;2.43;;;9.70;99.90;;;;;;5022873;28;20195;-68
2023/12/23 06:24:44;;;;;;;9.43;3.30;;;9.60;99.90;;;;;;5023400;28;20650;-69
2023/12/23 06:27:10;;;;;;;4.93;2.47;;;9.60;99.90;;;;;;5022242;28;20552;-68
2023/12/23 06:29:35;;;;;;;6.63;2.67;;;9.60;99.90;;;;;;5020710;28;20219;-69
2023/12/23 06:32:02;;;;;;;10.13;2.90;;;9.60;99.90;;;;;;5020694;28;20231;-68
2023/12/23 06:34:27;;;;;;;12.70;3.33;;;9.60;99.90;;;;;;5018930;28;20631;-68
2023/12/23 06:36:53;;;;;;;3.80;2.80;;;9.60;99.90;;;;;;5019876;28;20438;-68
2023/12/23 06:39:19;;;;;;;12.23;3.40;;;9.60;99.90;;;;;;5022105;28;20189;-68
2023/12/23 06:41:45;;;;;;;7.33;2.63;;;9.60;99.90;;;;;;5022050;28;20506;-68
2023/12/23 06:44:11;;;;;;;4.70;2.60;;;9.60;99.90;;;;;;5020198;28;20204;-68
2023/12/23 06:46:36;;;;;;;5.67;2.70;;;9.70;99.90;;;;;;5047904;28;20236;-68
2023/12/23 06:49:02;;;;;;;4.97;2.40;;;9.70;99.90;;;;;;5019790;28;20211;-68
2023/12/23 06:51:28;;;;;;;6.33;2.40;;;9.70;99.90;;;;;;5045959;28;20177;-69
2023/12/23 06:53:55;;;;;;;5.73;2.43;;;9.70;99.90;;;;;;5020665;28;20232;-68
2023/12/23 06:56:22;;;;;;;13.10;3.30;;;9.60;99.90;;;;;;5024093;28;20719;-68
2023/12/23 06:58:48;;;;;;;6.27;3.30;;;9.50;99.90;;;;;;5019671;28;20454;-68
2023/12/23 07:01:14;;;;;;;5.97;2.33;;;9.30;99.90;;;;;;5024654;28;20431;-68
2023/12/23 07:03:43;;;;;;;5.27;2.40;;;9.30;99.90;;;;;;5016112;28;20797;-68
2023/12/23 07:06:11;;;;;;;4.50;2.40;;;9.30;99.90;;;;;;5015359;28;20193;-68
2023/12/23 07:08:37;;;;;;;5.03;2.67;;;9.30;99.90;;;;;;5018054;28;20935;-68
2023/12/23 07:11:03;;;;;;;6.10;2.60;;;9.30;99.90;;;;;;5018175;28;20416;-68
2023/12/23 07:13:29;;;;;;;5.80;2.60;;;9.30;99.90;;;;;;5018638;28;20615;-68
2023/12/23 07:15:54;;;;;;;6.70;2.63;;;9.20;99.90;;;;;;5023852;28;20422;-68
2023/12/23 07:18:20;;;;;;;7.43;3.10;;;9.20;99.90;;;;;;5048370;28;20435;-68
2023/12/23 07:20:47;;;;;;;5.60;2.10;;;9.10;99.90;;;;;;5021080;28;20287;-69
2023/12/23 07:23:13;;;;;;;9.50;2.70;;;9.10;99.90;;;;;;5015562;28;20682;-68
2023/12/23 07:25:39;;;;;;;7.30;2.43;;;9.00;99.90;;;;;;5018548;28;20489;-68
2023/12/23 07:28:05;;;;;;;3.50;1.77;;;9.00;99.90;;;;;;5018816;28;20807;-68
2023/12/23 07:30:30;;;;;;;2.80;1.70;;;9.00;99.90;;;;;;5014949;28;20248;-68
2023/12/23 07:32:56;;;;;;;5.37;2.47;;;9.00;99.90;;;;;;5019502;28;20200;-67
2023/12/23 07:35:21;;;;;;;2.60;1.83;;;8.90;99.90;;;;;;5017069;28;20180;-68
2023/12/23 07:37:47;;;;;;;4.30;2.10;;;9.00;99.90;;;;;;5018414;28;20234;-69
2023/12/23 07:40:13;;;;;;;3.20;1.80;;;8.90;99.90;;;;;;5020036;28;20212;-69
2023/12/23 07:42:38;;;;;;;4.03;2.00;;;8.90;99.90;;;;;;5015609;28;20246;-69
2023/12/23 07:45:05;;;;;;;8.93;2.80;;;8.90;99.90;;;;;;5022352;28;20224;-69
2023/12/23 07:47:30;;;;;;;3.63;1.90;;;9.00;99.90;;;;;;5026970;28;20580;-69
2023/12/23 07:49:56;;;;;;;2.37;1.40;;;9.00;99.90;;;;;;5021599;28;20470;-68
2023/12/23 07:52:21;;;;;;;2.40;1.47;;;9.00;99.90;;;;;;5018913;28;20239;-68
2023/12/23 07:54:47;;;;;;;3.70;1.60;;;9.00;99.90;;;;;;5020881;28;20214;-68
2023/12/23 07:57:13;;;;;;;2.93;1.30;;;8.90;99.90;;;;;;5022066;28;20682;-68
2023/12/23 07:59:39;;;;;;;3.40;1.80;;;9.00;99.90;;;;;;5022824;28;20204;-68
2023/12/23 08:02:05;;;;;;;2.80;1.40;;;9.00;99.90;;;;;;5024668;28;20195;-68
2023/12/23 08:04:31;;;;;;;4.20;1.87;;;9.10;99.90;;;;;;5026998;28;20477;-69
2023/12/23 08:06:57;;;;;;;2.50;1.40;;;9.10;99.90;;;;;;5029159;28;20263;-68
2023/12/23 08:09:22;;;;;;;2.70;1.50;;;9.10;99.90;;;;;;5032717;28;20231;-68
2023/12/23 08:11:48;;;;;;;4.60;1.47;;;9.10;99.90;;;;;;5030972;28;20219;-68
2023/12/23 08:14:14;;;;;;;3.70;1.30;;;9.10;99.90;;;;;;5027060;28;20298;-67
2023/12/23 08:16:39;;;;;;;4.00;1.30;;;9.10;99.90;;;;;;5024840;28;20517;-68
2023/12/23 08:19:05;;;;;;;2.40;1.40;;;9.10;99.90;;;;;;5022681;28;20203;-68
2023/12/23 08:21:31;;;;;;;3.13;1.20;;;9.20;99.90;;;;;;5024278;28;20196;-69
2023/12/23 08:23:57;;;;;;;3.00;1.30;;;9.30;99.90;;;;;;5021920;28;20227;-70
2023/12/23 08:26:23;;;;;;;3.00;1.33;;;9.20;99.90;;;;;;5025354;28;20427;-70
2023/12/23 08:28:49;;;;;;;4.83;1.50;;;9.30;99.90;;;;;;5020328;28;20736;-70
2023/12/23 08:31:14;;;;;;;2.20;1.27;;;9.30;99.90;;;;;;5026148;28;20419;-70
2023/12/23 08:33:40;;;;;;;3.17;1.30;;;9.30;99.90;;;;;;5018571;28;20265;-70
2023/12/23 08:36:06;;;;;;;2.20;1.13;;;9.30;99.90;;;;;;5022322;28;20210;-70
2023/12/23 08:38:31;;;;;;;3.57;1.40;;;9.40;99.90;;;;;;5021360;28;20213;-69
2023/12/23 08:40:57;;;;;;;2.00;1.20;;;9.40;99.90;;;;;;5022558;28;20423;-68
2023/12/23 08:43:22;;;;;;;2.63;1.23;;;9.40;99.90;;;;;;5023244;28;20262;-69
2023/12/23 08:45:48;;;;;;;2.87;1.10;;;9.50;99.90;;;;;;5019455;28;20275;-68
2023/12/23 08:48:14;;;;;;;2.00;1.30;;;9.50;99.90;;;;;;5021314;28;20192;-69
2023/12/23 08:50:39;;;;;;;2.40;1.17;;;9.50;99.90;;;;;;5020860;28;20227;-69
2023/12/23 08:53:05;;;;;;;1.87;1.07;;;9.50;99.90;;;;;;5024228;28;20690;-69
2023/12/23 08:55:30;;;;;;;2.37;1.27;;;9.60;99.90;;;;;;5019257;28;20564;-69
2023/12/23 08:57:56;;;;;;;2.20;1.30;;;9.50;99.90;;;;;;5020425;28;20212;-69
2023/12/23 09:00:22;;;;;;;2.40;1.43;;;9.60;99.90;;;;;;5022226;28;20195;-69
2023/12/23 09:02:47;;;;;;;2.77;1.10;;;9.50;99.90;;;;;;5021225;28;20188;-68
2023/12/23 09:05:13;;;;;;;1.80;1.03;;;9.50;99.90;;;;;;5018350;28;20741;-69
2023/12/23 09:07:39;;;;;;;4.73;1.00;;;9.50;99.90;;;;;;5016753;28;20180;-69
2023/12/23 09:10:05;;;;;;;2.17;1.10;;;9.50;99.90;;;;;;5022454;28;20493;-69
2023/12/23 09:12:33;;;;;;;6.83;1.30;;;9.50;99.90;;;;;;5023536;28;20660;-69
2023/12/23 09:14:59;;;;;;;2.83;1.30;;;9.50;99.90;;;;;;5019104;28;20459;-69
2023/12/23 09:17:24;;;;;;;2.63;1.20;;;9.50;99.90;;;;;;5021329;28;20412;-69
2023/12/23 09:19:50;;;;;;;1.90;1.17;;;9.60;99.90;;;;;;5022620;28;20423;-69
2023/12/23 09:22:16;;;;;;;2.43;1.20;;;9.60;99.90;;;;;;5019952;28;20200;-68
2023/12/23 09:24:43;;;;;;;2.03;1.10;;;9.50;99.90;;;;;;5024503;28;20239;-69
2023/12/23 09:27:09;;;;;;;5.00;1.33;;;9.40;99.90;;;;;;5025723;28;20263;-68
2023/12/23 09:29:34;;;;;;;2.10;1.03;;;9.50;99.90;;;;;;5024346;28;20550;-69
2023/12/23 09:32:00;;;;;;;2.30;1.17;;;9.50;99.90;;;;;;5022384;28;20199;-69
2023/12/23 09:34:26;;;;;;;1.83;1.10;;;9.40;99.90;;;;;;5023619;28;20302;-69
2023/12/23 09:36:52;;;;;;;2.27;1.10;;;9.50;99.90;;;;;;5023980;28;20263;-69
2023/12/23 09:39:18;;;;;;;1.90;1.07;;;9.60;99.90;;;;;;5027068;28;20573;-69
2023/12/23 09:41:44;;;;;;;2.00;1.00;;;9.60;99.90;;;;;;5024392;28;20222;-69
2023/12/23 09:44:10;;;;;;;1.80;1.10;;;9.50;99.90;;;;;;5024258;28;20512;-70
2023/12/23 09:46:38;;;;;;;2.10;1.10;;;9.50;99.90;;;;;;5025623;28;20450;-69
2023/12/23 09:49:04;;;;;;;2.73;1.10;;;9.50;99.90;;;;;;5023746;28;20280;-69
2023/12/23 09:51:32;;;;;;;2.47;1.20;;;9.50;99.90;;;;;;5025428;28;20502;-69
2023/12/23 09:54:01;;;;;;;1.90;1.03;;;9.50;99.90;;;;;;5018360;28;20563;-69
2023/12/23 09:56:30;;;;;;;5.00;1.20;;;9.50;99.90;;;;;;5020305;28;20452;-69
2023/12/23 09:58:56;;;;;;;2.27;1.20;;;9.40;99.90;;;;;;5019220;28;20442;-69
2023/12/23 10:01:22;;;;;;;1.90;1.00;;;9.40;99.90;;;;;;5022572;28;20597;-69
2023/12/23 10:03:49;;;;;;;3.37;1.10;;;9.30;99.90;;;;;;5023289;28;20299;-69
2023/12/23 10:06:15;;;;;;;2.40;1.13;;;9.30;99.90;;;;;;5023186;28;20431;-69
2023/12/23 10:08:42;;;;;;;2.10;1.10;;;9.30;99.90;;;;;;5019791;28;20918;-69
2023/12/23 10:11:07;;;;;;;3.83;2.00;;;9.30;99.90;;;;;;5021809;28;20431;-69
2023/12/23 10:13:33;;;;;;;3.13;1.13;;;9.30;99.90;;;;;;5023622;28;20972;-69
2023/12/23 10:15:59;;;;;;;1.80;1.00;;;9.30;99.90;;;;;;5020203;28;20548;-69
2023/12/23 10:18:24;;;;;;;2.13;1.00;;;9.30;99.90;;;;;;5017946;28;20177;-69
2023/12/23 10:20:50;;;;;;;3.30;1.00;;;9.30;99.90;;;;;;5019108;28;20213;-69
2023/12/23 10:23:16;;;;;;;1.80;0.90;;;9.30;99.90;;;;;;5019948;28;20209;-69
2023/12/23 10:25:41;;;;;;;2.40;1.10;;;9.30;99.90;;;;;;5018053;28;20223;-69
2023/12/23 10:28:08;;;;;;;5.30;1.10;;;9.30;99.90;;;;;;5022490;28;20283;-69
2023/12/23 10:30:37;;;;;;;2.00;1.07;;;9.30;99.90;;;;;;5016554;28;20583;-69
2023/12/23 10:33:06;;;;;;;2.20;1.00;;;9.40;99.90;;;;;;5018162;28;20453;-69
2023/12/23 10:35:45;;;;;;;2.50;1.03;;;9.40;99.90;;;;;;5021086;28;21011;-69
2023/12/23 10:38:16;;;;;;;3.03;1.53;;;9.40;99.90;;;;;;5015416;28;20427;-69
2023/12/23 10:40:46;;;;;;;3.83;1.10;;;9.50;99.90;;;;;;5017549;28;20411;-69
2023/12/23 10:43:13;;;;;;;2.20;1.10;;;9.50;99.90;;;;;;5024124;28;20443;-69
2023/12/23 10:45:41;;;;;;;1.90;1.00;;;9.50;99.90;;;;;;5036270;28;20481;-69
2023/12/23 10:48:09;;;;;;;2.73;1.00;;;9.50;99.90;;;;;;5022268;28;20451;-69
2023/12/23 10:50:35;;;;;;;1.90;1.00;;;9.50;99.90;;;;;;5014285;28;20454;-69
2023/12/23 10:53:03;;;;;;;2.30;1.20;;;9.40;99.90;;;;;;5018336;28;20813;-69
2023/12/23 10:55:30;;;;;;;3.10;1.23;;;9.40;99.90;;;;;;5015114;28;20486;-69
2023/12/23 10:57:57;;;;;;;2.00;1.20;;;9.40;99.90;;;;;;5012644;28;20426;-69
2023/12/23 11:00:23;;;;;;;2.00;1.10;;;9.50;99.90;;;;;;5020171;28;20427;-69
2023/12/23 11:02:51;;;;;;;1.80;0.90;;;9.40;99.90;;;;;;5016638;28;20419;-68
2023/12/23 11:05:19;;;;;;;2.07;1.17;;;9.40;99.90;;;;;;5016013;28;20189;-69
2023/12/23 11:07:47;;;;;;;1.70;0.90;;;9.50;99.90;;;;;;5011938;28;20419;-69
2023/12/23 11:10:16;;;;;;;2.40;1.10;;;9.40;99.90;;;;;;5017360;28;20495;-69
2023/12/23 11:12:43;;;;;;;1.97;1.00;;;9.40;99.90;;;;;;5022035;28;20477;-69
2023/12/23 11:15:09;;;;;;;2.10;1.10;;;9.40;99.90;;;;;;5021737;28;20895;-68
2023/12/23 11:17:40;;;;;;;2.70;1.00;;;9.40;99.90;;;;;;5022833;28;20498;-68
2023/12/23 11:20:07;;;;;;;2.00;1.10;;;9.40;99.90;;;;;;5020458;28;20435;-68
2023/12/23 11:22:37;;;;;;;2.10;1.00;;;9.50;99.90;;;;;;5019750;28;20451;-68
2023/12/23 11:25:03;;;;;;;1.80;1.00;;;9.50;99.90;;;;;;5022599;28;20454;-69
2023/12/23 11:27:37;;;;;;;1.90;1.00;;;9.50;99.90;;;;;;5021523;28;20439;-68
2023/12/23 11:30:03;;;;;;;2.23;1.00;;;9.50;99.90;;;;;;5024840;28;20459;-69
2023/12/23 11:32:39;;;;;;;2.03;1.07;;;9.50;99.90;;;;;;5026564;28;20506;-69
2023/12/23 11:35:08;;;;;;;1.90;1.00;;;9.60;99.90;;;;;;5021356;28;20438;-68
2023/12/23 11:37:57;;;;;;;2.93;1.10;;;9.60;99.90;;;;;;5024413;28;20473;-69
2023/12/23 11:40:23;;;;;;;1.80;1.00;;;9.70;99.90;;;;;;5024080;28;20423;-69
2023/12/23 11:42:49;;;;;;;2.97;1.50;;;9.70;99.90;;;;;;5017741;28;20785;-69
2023/12/23 11:45:15;;;;;;;1.80;0.90;;;9.80;99.90;;;;;;5025893;28;20429;-69
2023/12/23 11:47:41;;;;;;;3.13;1.10;;;9.80;99.90;;;;;;5022694;28;20422;-69
2023/12/23 11:50:08;;;;;;;1.90;0.90;;;9.80;99.90;;;;;;5022984;28;20474;-69
2023/12/23 11:52:36;;;;;;;1.80;1.00;;;9.70;99.90;;;;;;5020921;28;20177;-68
2023/12/23 11:55:03;;;;;;;2.20;1.23;;;9.80;99.90;;;;;;5023020;28;20929;-69
2023/12/23 11:57:30;;;;;;;2.70;1.03;;;9.70;99.90;;;;;;5017508;28;20519;-69
2023/12/23 11:59:59;;;;;;;1.90;1.00;;;9.70;99.90;;;;;;5021525;28;20434;-69
2023/12/23 12:02:27;;;;;;;1.80;1.00;;;9.70;99.90;;;;;;5022126;28;20437;-69
2023/12/23 12:04:53;;;;;;;2.07;1.00;;;9.80;99.90;;;;;;5022984;28;20448;-68
2023/12/23 12:07:20;;;;;;;1.97;0.90;;;9.90;99.90;;;;;;5021442;28;20419;-68
2023/12/23 12:09:46;;;;;;;1.80;0.90;;;9.80;99.90;;;;;;5017377;28;20201;-68
2023/12/23 12:12:12;;;;;;;8.10;1.03;;;9.80;99.90;;;;;;5025165;28;20426;-67
2023/12/23 12:14:38;;;;;;;2.77;1.03;;;9.80;99.90;;;;;;5014939;28;20660;-67
2023/12/23 12:17:03;;;;;;;2.50;1.20;;;9.80;99.90;;;;;;5023574;28;20498;-68
2023/12/23 12:19:29;;;;;;;2.23;1.03;;;9.80;99.90;;;;;;5026339;28;20809;-68
2023/12/23 12:21:55;;;;;;;1.90;1.10;;;9.80;99.90;;;;;;5023997;28;20255;-68
2023/12/23 12:24:20;;;;;;;2.57;1.00;;;9.60;99.90;;;;;;5022771;28;20220;-67
2023/12/23 12:26:52;;;;;;;2.97;1.10;;;9.60;99.90;;;;;;5025830;28;20646;-67
2023/12/23 12:29:19;;;;;;;2.20;1.20;;;9.60;99.90;;;;;;5025310;28;20192;-68
2023/12/23 12:31:45;;;;;;;4.57;1.20;;;9.60;99.90;;;;;;5022203;28;20435;-67
2023/12/23 12:34:12;;;;;;;1.90;1.10;;;9.60;99.90;;;;;;5022901;28;20630;-68
2023/12/23 12:36:38;;;;;;;2.90;1.20;;;9.50;99.90;;;;;;5021044;28;20192;-69
2023/12/23 12:39:03;;;;;;;1.90;1.10;;;9.50;99.90;;;;;;5024974;28;20414;-68
2023/12/23 12:41:29;;;;;;;2.00;1.10;;;9.60;99.90;;;;;;5017898;28;20196;-68
2023/12/23 12:43:55;;;;;;;2.57;1.10;;;9.60;99.90;;;;;;5021385;28;20253;-68
2023/12/23 12:46:21;;;;;;;1.90;1.00;;;9.70;99.90;;;;;;5022597;28;20936;-67
2023/12/23 12:48:49;;;;;;;2.00;1.00;;;9.70;99.90;;;;;;5023671;28;20705;-68